BLUO2: Blue River, Blue, OK

Data processed at Sun Sep 23 2018 22:02


All information presented herein is the property of the government of the United States of America and may be revised or deleted at any time without prior notice.
Dissemination of this information without the expressed written consent of the Public Affairs Office, Tulsa District U.S. Army Corps of Engineers is strictly prohibited.
These data are gathered electronically and, as presented, have not undergone any form of quality control. These data are not guaranteed to be valid or correct.
Go to home page.
Go to station list.
Go to home page.

Downstream station:


Previous Day
Next Day
Current Day
    
SHEF ID:       BLUO2     Blue River near Blue, OK
STATION TYPE:  

               PRECIP     STAGE  RIV-FLOW  BAT-LOAD
                   in        ft       cfs      volt
              Ccp-Rev   Ccp-Rev   Ccp-Rev   Ccp-Rev
(US/Central)
09/23 00:00      0.00     28.13      6740     12.17
09/23 01:00      0.06     28.55      6930     12.41
09/23 02:00      0.01     29.28      7260     12.41
09/23 03:00      0.00     30.42      7870     12.41
09/23 04:00      0.01     32.09      9770     12.41
09/23 05:00      0.02     33.67     12300     12.41
09/23 06:00      0.09     34.90     14400     12.41
09/23 07:00      0.01     35.76     16000     12.49
09/23 08:00      0.00     36.31     17100     12.41
09/23 09:00      0.00     36.66     17800     12.41
09/23 10:00      0.00     36.87     18300     12.57
09/23 11:00      0.00     36.97     18500     12.65
09/23 12:00      0.00     37.00     18500     12.81
09/23 13:00      0.00     36.95     18400     12.97
09/23 14:00      0.00     36.83     18200     13.05
09/23 15:00      0.00     36.68     17900     13.05
09/23 16:00      0.00     36.51     17500     13.05
09/23 17:00      0.02     36.25     17000     12.97
09/23 18:00      0.00     35.99     16500     12.81
09/23 19:00      0.00     35.70     15900     12.73
09/23 20:00      0.00     35.40     15400     12.33
09/23 21:00      0.00     35.05     14700     12.57
09/23 22:00      ----      ----      ----      ----
09/23 23:00      ----      ----      ----      ----